首页
METAR-TAF:

METAR-TAF

机场 :

Wonderboom Airport

比勒陀利亞, 南非共和國

纬度: 25-39S, 经度: 028-13E, 海拔: 1248米

当前天气观测

该预报发布于1小时和12分钟前的04:00 UTC
静风
温度
气压 1025 hPa

METAR: FAWB 250400Z AUTO 00000KT //// // ////// ///// Q1025

时间: 07:12 (05:12 UTC)

预报

该预报发布于2小时和12分钟前的03:00 UTC
预报有效从25日的 04点(UTC)到 25日的 15点(UTC)
风速3节,风向多变
能见度10公里或以上
1500米以下无云,无积雨云

TAF: FAWB 250300Z 2504/2515 VRB03KT CAVOK TX23/2512Z TN09/2504Z

超过4000个机场的气象观测和天气预报(METAR&TAF报告)。

可查询的气象台以黄色和红色小点在地图上表示。

将鼠标移到小点上方,可查看气象台名称。

然后点击查看天气观测和预报。

如需切换地图:点击带黑十字的绿色按钮放大地图;点击带横线的绿色按钮缩小地图;或者点击绿色箭头查看邻近地区的地图。


METAR-TAF: